sensor_id;sensor_type;location;lat;lon;timestamp;P1;durP1;ratioP1;P2;durP2;ratioP2
77123;SDS011;66079;47.646;19.130;2023-01-30T00:00:43;14.50;;;7.85;;
77123;SDS011;66079;47.646;19.130;2023-01-30T00:03:46;14.25;;;7.78;;
77123;SDS011;66079;47.646;19.130;2023-01-30T00:06:48;14.13;;;7.47;;
77123;SDS011;66079;47.646;19.130;2023-01-30T00:09:51;15.85;;;8.25;;
77123;SDS011;66079;47.646;19.130;2023-01-30T00:12:53;15.63;;;8.05;;
77123;SDS011;66079;47.646;19.130;2023-01-30T00:15:56;19.40;;;8.07;;
77123;SDS011;66079;47.646;19.130;2023-01-30T00:18:59;17.88;;;8.45;;
77123;SDS011;66079;47.646;19.130;2023-01-30T00:22:02;16.77;;;8.23;;
77123;SDS011;66079;47.646;19.130;2023-01-30T00:25:04;16.35;;;8.30;;
77123;SDS011;66079;47.646;19.130;2023-01-30T00:28:08;18.37;;;8.70;;
77123;SDS011;66079;47.646;19.130;2023-01-30T00:31:10;16.83;;;8.50;;
77123;SDS011;66079;47.646;19.130;2023-01-30T00:34:13;18.70;;;8.93;;
77123;SDS011;66079;47.646;19.130;2023-01-30T00:37:15;17.10;;;9.40;;
77123;SDS011;66079;47.646;19.130;2023-01-30T00:40:18;21.17;;;9.55;;
77123;SDS011;66079;47.646;19.130;2023-01-30T00:43:20;18.10;;;9.02;;
77123;SDS011;66079;47.646;19.130;2023-01-30T00:46:41;17.45;;;8.25;;
77123;SDS011;66079;47.646;19.130;2023-01-30T00:50:02;17.60;;;8.40;;
77123;SDS011;66079;47.646;19.130;2023-01-30T00:53:05;20.58;;;9.60;;
77123;SDS011;66079;47.646;19.130;2023-01-30T00:56:07;17.10;;;8.05;;
77123;SDS011;66079;47.646;19.130;2023-01-30T00:59:10;18.13;;;8.23;;
77123;SDS011;66079;47.646;19.130;2023-01-30T01:02:12;19.27;;;8.73;;
77123;SDS011;66079;47.646;19.130;2023-01-30T01:05:15;18.95;;;8.73;;
77123;SDS011;66079;47.646;19.130;2023-01-30T01:08:18;17.57;;;8.60;;
77123;SDS011;66079;47.646;19.130;2023-01-30T01:11:21;20.05;;;8.90;;
77123;SDS011;66079;47.646;19.130;2023-01-30T01:14:26;25.60;;;9.60;;
77123;SDS011;66079;47.646;19.130;2023-01-30T01:17:29;17.20;;;9.02;;
77123;SDS011;66079;47.646;19.130;2023-01-30T01:20:32;18.98;;;9.88;;
77123;SDS011;66079;47.646;19.130;2023-01-30T01:23:34;18.27;;;8.77;;
77123;SDS011;66079;47.646;19.130;2023-01-30T01:26:37;18.67;;;8.50;;
77123;SDS011;66079;47.646;19.130;2023-01-30T01:29:39;16.63;;;8.63;;
77123;SDS011;66079;47.646;19.130;2023-01-30T01:32:42;17.85;;;8.90;;
77123;SDS011;66079;47.646;19.130;2023-01-30T01:35:44;19.10;;;9.10;;
77123;SDS011;66079;47.646;19.130;2023-01-30T01:38:50;19.97;;;9.37;;
77123;SDS011;66079;47.646;19.130;2023-01-30T01:41:53;16.50;;;8.52;;
77123;SDS011;66079;47.646;19.130;2023-01-30T01:44:56;19.20;;;10.13;;
77123;SDS011;66079;47.646;19.130;2023-01-30T01:48:10;20.02;;;8.55;;
77123;SDS011;66079;47.646;19.130;2023-01-30T01:51:25;24.35;;;9.43;;
77123;SDS011;66079;47.646;19.130;2023-01-30T01:54:39;17.92;;;9.20;;
77123;SDS011;66079;47.646;19.130;2023-01-30T01:57:59;16.88;;;8.82;;
77123;SDS011;66079;47.646;19.130;2023-01-30T02:01:06;19.90;;;9.63;;
77123;SDS011;66079;47.646;19.130;2023-01-30T02:04:09;18.20;;;7.55;;
77123;SDS011;66079;47.646;19.130;2023-01-30T02:07:13;16.98;;;8.10;;
77123;SDS011;66079;47.646;19.130;2023-01-30T02:10:27;20.93;;;8.90;;
77123;SDS011;66079;47.646;19.130;2023-01-30T02:13:53;18.95;;;9.13;;
77123;SDS011;66079;47.646;19.130;2023-01-30T02:16:58;19.92;;;9.30;;
77123;SDS011;66079;47.646;19.130;2023-01-30T02:23:21;22.73;;;9.30;;
77123;SDS011;66079;47.646;19.130;2023-01-30T02:27:07;19.40;;;8.60;;
77123;SDS011;66079;47.646;19.130;2023-01-30T02:37:41;18.90;;;8.30;;
77123;SDS011;66079;47.646;19.130;2023-01-30T02:44:31;16.33;;;8.50;;
77123;SDS011;66079;47.646;19.130;2023-01-30T02:47:49;20.05;;;9.80;;
77123;SDS011;66079;47.646;19.130;2023-01-30T02:51:04;21.25;;;9.30;;
77123;SDS011;66079;47.646;19.130;2023-01-30T02:54:13;20.58;;;9.15;;
77123;SDS011;66079;47.646;19.130;2023-01-30T02:57:18;22.27;;;9.55;;
77123;SDS011;66079;47.646;19.130;2023-01-30T03:07:33;18.40;;;9.07;;
77123;SDS011;66079;47.646;19.130;2023-01-30T03:10:38;20.58;;;8.75;;
77123;SDS011;66079;47.646;19.130;2023-01-30T03:16:55;21.17;;;9.70;;
77123;SDS011;66079;47.646;19.130;2023-01-30T03:20:00;20.98;;;9.48;;
77123;SDS011;66079;47.646;19.130;2023-01-30T03:23:03;20.65;;;10.20;;
77123;SDS011;66079;47.646;19.130;2023-01-30T03:26:07;23.08;;;9.82;;
77123;SDS011;66079;47.646;19.130;2023-01-30T03:29:15;22.45;;;10.23;;
77123;SDS011;66079;47.646;19.130;2023-01-30T03:32:18;20.75;;;10.05;;
77123;SDS011;66079;47.646;19.130;2023-01-30T03:35:20;21.48;;;9.50;;
77123;SDS011;66079;47.646;19.130;2023-01-30T03:38:24;19.00;;;8.80;;
77123;SDS011;66079;47.646;19.130;2023-01-30T03:41:28;22.45;;;10.10;;
77123;SDS011;66079;47.646;19.130;2023-01-30T03:44:30;27.52;;;10.23;;
77123;SDS011;66079;47.646;19.130;2023-01-30T03:47:34;20.93;;;10.03;;
77123;SDS011;66079;47.646;19.130;2023-01-30T03:50:36;22.10;;;9.18;;
77123;SDS011;66079;47.646;19.130;2023-01-30T03:53:39;17.90;;;8.13;;
77123;SDS011;66079;47.646;19.130;2023-01-30T03:56:43;21.83;;;10.70;;
77123;SDS011;66079;47.646;19.130;2023-01-30T03:59:45;17.08;;;9.13;;
77123;SDS011;66079;47.646;19.130;2023-01-30T04:02:50;20.75;;;9.70;;
77123;SDS011;66079;47.646;19.130;2023-01-30T04:05:54;22.40;;;10.05;;
77123;SDS011;66079;47.646;19.130;2023-01-30T04:08:56;23.33;;;9.43;;
77123;SDS011;66079;47.646;19.130;2023-01-30T04:12:09;22.98;;;9.25;;
77123;SDS011;66079;47.646;19.130;2023-01-30T04:15:20;22.13;;;10.15;;
77123;SDS011;66079;47.646;19.130;2023-01-30T04:18:49;23.23;;;9.87;;
77123;SDS011;66079;47.646;19.130;2023-01-30T04:21:54;19.08;;;9.32;;
77123;SDS011;66079;47.646;19.130;2023-01-30T04:24:57;23.77;;;8.80;;
77123;SDS011;66079;47.646;19.130;2023-01-30T04:28:01;19.50;;;8.90;;
77123;SDS011;66079;47.646;19.130;2023-01-30T04:31:08;22.40;;;10.40;;
77123;SDS011;66079;47.646;19.130;2023-01-30T04:34:30;20.13;;;8.95;;
77123;SDS011;66079;47.646;19.130;2023-01-30T04:37:33;20.25;;;9.48;;
77123;SDS011;66079;47.646;19.130;2023-01-30T04:40:35;17.13;;;9.20;;
77123;SDS011;66079;47.646;19.130;2023-01-30T04:43:38;20.35;;;9.15;;
77123;SDS011;66079;47.646;19.130;2023-01-30T04:47:00;22.00;;;9.45;;
77123;SDS011;66079;47.646;19.130;2023-01-30T04:50:03;19.80;;;10.13;;
77123;SDS011;66079;47.646;19.130;2023-01-30T04:53:06;22.55;;;10.50;;
77123;SDS011;66079;47.646;19.130;2023-01-30T04:56:10;27.38;;;11.68;;
77123;SDS011;66079;47.646;19.130;2023-01-30T04:59:13;23.95;;;10.38;;
77123;SDS011;66079;47.646;19.130;2023-01-30T05:02:18;24.55;;;10.57;;
77123;SDS011;66079;47.646;19.130;2023-01-30T05:05:24;28.33;;;12.27;;
77123;SDS011;66079;47.646;19.130;2023-01-30T05:08:27;27.60;;;11.57;;
77123;SDS011;66079;47.646;19.130;2023-01-30T05:11:30;23.50;;;10.80;;
77123;SDS011;66079;47.646;19.130;2023-01-30T05:14:33;25.70;;;11.05;;
77123;SDS011;66079;47.646;19.130;2023-01-30T05:17:36;25.92;;;11.70;;
77123;SDS011;66079;47.646;19.130;2023-01-30T05:20:39;26.13;;;12.17;;
77123;SDS011;66079;47.646;19.130;2023-01-30T05:23:42;25.67;;;11.27;;
77123;SDS011;66079;47.646;19.130;2023-01-30T05:26:44;26.75;;;11.13;;
77123;SDS011;66079;47.646;19.130;2023-01-30T05:29:47;23.52;;;10.63;;
77123;SDS011;66079;47.646;19.130;2023-01-30T05:32:49;26.25;;;11.88;;
77123;SDS011;66079;47.646;19.130;2023-01-30T05:35:52;23.77;;;11.38;;
77123;SDS011;66079;47.646;19.130;2023-01-30T05:38:55;24.13;;;11.13;;
77123;SDS011;66079;47.646;19.130;2023-01-30T05:41:57;25.40;;;10.93;;
77123;SDS011;66079;47.646;19.130;2023-01-30T05:45:00;27.60;;;11.73;;
77123;SDS011;66079;47.646;19.130;2023-01-30T05:48:02;26.73;;;12.07;;
77123;SDS011;66079;47.646;19.130;2023-01-30T05:51:05;27.50;;;12.60;;
77123;SDS011;66079;47.646;19.130;2023-01-30T05:54:08;26.65;;;11.63;;
77123;SDS011;66079;47.646;19.130;2023-01-30T05:57:11;31.00;;;13.65;;
77123;SDS011;66079;47.646;19.130;2023-01-30T06:00:14;26.50;;;11.88;;
77123;SDS011;66079;47.646;19.130;2023-01-30T06:03:17;24.17;;;10.85;;
77123;SDS011;66079;47.646;19.130;2023-01-30T06:06:20;26.58;;;12.32;;
77123;SDS011;66079;47.646;19.130;2023-01-30T06:09:23;25.65;;;12.48;;
77123;SDS011;66079;47.646;19.130;2023-01-30T06:12:26;28.67;;;12.53;;
77123;SDS011;66079;47.646;19.130;2023-01-30T06:15:28;28.85;;;12.18;;
77123;SDS011;66079;47.646;19.130;2023-01-30T06:18:31;27.33;;;12.20;;
77123;SDS011;66079;47.646;19.130;2023-01-30T06:21:34;28.90;;;12.57;;
77123;SDS011;66079;47.646;19.130;2023-01-30T06:24:36;26.42;;;12.63;;
77123;SDS011;66079;47.646;19.130;2023-01-30T06:27:39;35.15;;;14.55;;
77123;SDS011;66079;47.646;19.130;2023-01-30T06:30:41;39.35;;;18.15;;
77123;SDS011;66079;47.646;19.130;2023-01-30T06:33:44;37.00;;;15.35;;
77123;SDS011;66079;47.646;19.130;2023-01-30T06:36:47;37.85;;;15.70;;
77123;SDS011;66079;47.646;19.130;2023-01-30T06:39:50;33.67;;;14.45;;
77123;SDS011;66079;47.646;19.130;2023-01-30T06:42:52;29.07;;;12.83;;
77123;SDS011;66079;47.646;19.130;2023-01-30T06:45:57;32.00;;;12.95;;
77123;SDS011;66079;47.646;19.130;2023-01-30T06:49:00;30.05;;;12.45;;
77123;SDS011;66079;47.646;19.130;2023-01-30T06:52:02;27.57;;;13.03;;
77123;SDS011;66079;47.646;19.130;2023-01-30T06:55:05;29.05;;;12.82;;
77123;SDS011;66079;47.646;19.130;2023-01-30T06:58:09;28.05;;;13.90;;
77123;SDS011;66079;47.646;19.130;2023-01-30T07:01:13;25.80;;;13.23;;
77123;SDS011;66079;47.646;19.130;2023-01-30T07:04:16;24.58;;;12.30;;
77123;SDS011;66079;47.646;19.130;2023-01-30T07:07:18;30.95;;;13.85;;
77123;SDS011;66079;47.646;19.130;2023-01-30T07:10:21;26.52;;;12.60;;
77123;SDS011;66079;47.646;19.130;2023-01-30T07:13:24;28.23;;;13.50;;
77123;SDS011;66079;47.646;19.130;2023-01-30T07:16:26;30.27;;;13.80;;
77123;SDS011;66079;47.646;19.130;2023-01-30T07:19:31;30.65;;;12.57;;
77123;SDS011;66079;47.646;19.130;2023-01-30T07:22:34;23.60;;;11.17;;
77123;SDS011;66079;47.646;19.130;2023-01-30T07:25:36;19.73;;;9.15;;
77123;SDS011;66079;47.646;19.130;2023-01-30T07:28:39;21.67;;;11.00;;
77123;SDS011;66079;47.646;19.130;2023-01-30T07:31:41;21.27;;;10.52;;
77123;SDS011;66079;47.646;19.130;2023-01-30T07:34:45;20.73;;;9.75;;
77123;SDS011;66079;47.646;19.130;2023-01-30T07:37:48;27.38;;;12.30;;
77123;SDS011;66079;47.646;19.130;2023-01-30T07:40:52;24.85;;;11.50;;
77123;SDS011;66079;47.646;19.130;2023-01-30T07:43:54;23.37;;;10.77;;
77123;SDS011;66079;47.646;19.130;2023-01-30T07:46:57;30.85;;;13.00;;
77123;SDS011;66079;47.646;19.130;2023-01-30T07:50:00;26.23;;;12.45;;
77123;SDS011;66079;47.646;19.130;2023-01-30T07:53:03;26.37;;;12.17;;
77123;SDS011;66079;47.646;19.130;2023-01-30T07:56:07;25.38;;;11.90;;
77123;SDS011;66079;47.646;19.130;2023-01-30T07:59:11;25.80;;;11.55;;
77123;SDS011;66079;47.646;19.130;2023-01-30T08:02:14;24.20;;;11.70;;
77123;SDS011;66079;47.646;19.130;2023-01-30T08:05:16;23.85;;;11.05;;
77123;SDS011;66079;47.646;19.130;2023-01-30T08:08:19;23.42;;;10.63;;
77123;SDS011;66079;47.646;19.130;2023-01-30T08:11:21;19.75;;;10.43;;
77123;SDS011;66079;47.646;19.130;2023-01-30T08:14:24;23.23;;;11.57;;
77123;SDS011;66079;47.646;19.130;2023-01-30T08:17:26;27.48;;;12.57;;
77123;SDS011;66079;47.646;19.130;2023-01-30T08:20:29;16.80;;;8.60;;
77123;SDS011;66079;47.646;19.130;2023-01-30T08:23:32;21.07;;;10.87;;
77123;SDS011;66079;47.646;19.130;2023-01-30T08:26:35;26.02;;;12.07;;
77123;SDS011;66079;47.646;19.130;2023-01-30T08:29:37;24.95;;;11.32;;
77123;SDS011;66079;47.646;19.130;2023-01-30T08:32:40;23.42;;;10.98;;
77123;SDS011;66079;47.646;19.130;2023-01-30T08:35:43;24.65;;;11.60;;
77123;SDS011;66079;47.646;19.130;2023-01-30T08:38:45;22.30;;;10.65;;
77123;SDS011;66079;47.646;19.130;2023-01-30T08:41:48;23.67;;;10.90;;
77123;SDS011;66079;47.646;19.130;2023-01-30T08:44:51;24.10;;;10.97;;
77123;SDS011;66079;47.646;19.130;2023-01-30T08:47:56;27.73;;;11.57;;
77123;SDS011;66079;47.646;19.130;2023-01-30T08:51:03;23.80;;;10.20;;
77123;SDS011;66079;47.646;19.130;2023-01-30T08:54:05;25.30;;;11.13;;
77123;SDS011;66079;47.646;19.130;2023-01-30T08:57:12;27.23;;;12.57;;
77123;SDS011;66079;47.646;19.130;2023-01-30T09:00:15;24.50;;;10.25;;
77123;SDS011;66079;47.646;19.130;2023-01-30T09:03:18;24.52;;;11.10;;
77123;SDS011;66079;47.646;19.130;2023-01-30T09:06:21;22.08;;;10.05;;
77123;SDS011;66079;47.646;19.130;2023-01-30T09:09:30;21.77;;;10.82;;
77123;SDS011;66079;47.646;19.130;2023-01-30T09:12:32;25.83;;;12.25;;
77123;SDS011;66079;47.646;19.130;2023-01-30T09:15:35;27.73;;;11.88;;
77123;SDS011;66079;47.646;19.130;2023-01-30T09:18:39;23.60;;;11.10;;
77123;SDS011;66079;47.646;19.130;2023-01-30T09:21:43;22.85;;;10.63;;
77123;SDS011;66079;47.646;19.130;2023-01-30T09:24:45;25.23;;;11.95;;
77123;SDS011;66079;47.646;19.130;2023-01-30T09:27:48;25.83;;;11.73;;
77123;SDS011;66079;47.646;19.130;2023-01-30T09:30:51;28.98;;;12.98;;
77123;SDS011;66079;47.646;19.130;2023-01-30T09:33:54;28.92;;;12.27;;
77123;SDS011;66079;47.646;19.130;2023-01-30T09:36:57;27.00;;;11.77;;
77123;SDS011;66079;47.646;19.130;2023-01-30T09:40:08;31.20;;;12.10;;
77123;SDS011;66079;47.646;19.130;2023-01-30T09:46:34;23.35;;;10.73;;
77123;SDS011;66079;47.646;19.130;2023-01-30T09:57:00;26.33;;;10.50;;
77123;SDS011;66079;47.646;19.130;2023-01-30T10:00:24;28.30;;;12.45;;
77123;SDS011;66079;47.646;19.130;2023-01-30T10:04:03;27.30;;;12.25;;
77123;SDS011;66079;47.646;19.130;2023-01-30T10:07:19;33.10;;;13.73;;
77123;SDS011;66079;47.646;19.130;2023-01-30T10:27:25;25.83;;;12.20;;
77123;SDS011;66079;47.646;19.130;2023-01-30T10:30:32;30.23;;;12.18;;
77123;SDS011;66079;47.646;19.130;2023-01-30T10:33:37;30.85;;;13.65;;
77123;SDS011;66079;47.646;19.130;2023-01-30T10:40:40;29.80;;;13.63;;
77123;SDS011;66079;47.646;19.130;2023-01-30T10:43:47;33.85;;;15.02;;
77123;SDS011;66079;47.646;19.130;2023-01-30T10:50:16;32.50;;;13.50;;
77123;SDS011;66079;47.646;19.130;2023-01-30T10:53:33;28.20;;;13.63;;
77123;SDS011;66079;47.646;19.130;2023-01-30T10:59:59;26.35;;;12.48;;
77123;SDS011;66079;47.646;19.130;2023-01-30T11:06:24;21.23;;;10.50;;
77123;SDS011;66079;47.646;19.130;2023-01-30T11:09:45;19.20;;;10.07;;
77123;SDS011;66079;47.646;19.130;2023-01-30T11:12:53;18.60;;;9.20;;
77123;SDS011;66079;47.646;19.130;2023-01-30T11:16:05;20.38;;;9.27;;
77123;SDS011;66079;47.646;19.130;2023-01-30T11:19:10;22.83;;;10.93;;
77123;SDS011;66079;47.646;19.130;2023-01-30T11:22:24;18.83;;;9.67;;
77123;SDS011;66079;47.646;19.130;2023-01-30T11:25:28;20.58;;;10.07;;
77123;SDS011;66079;47.646;19.130;2023-01-30T11:28:35;24.90;;;10.65;;
77123;SDS011;66079;47.646;19.130;2023-01-30T11:31:47;21.20;;;10.20;;
77123;SDS011;66079;47.646;19.130;2023-01-30T11:38:10;21.20;;;10.90;;
77123;SDS011;66079;47.646;19.130;2023-01-30T11:41:21;20.20;;;9.60;;
77123;SDS011;66079;47.646;19.130;2023-01-30T11:44:24;20.67;;;9.70;;
77123;SDS011;66079;47.646;19.130;2023-01-30T11:47:31;19.03;;;8.87;;
77123;SDS011;66079;47.646;19.130;2023-01-30T11:50:40;20.10;;;8.55;;
77123;SDS011;66079;47.646;19.130;2023-01-30T11:53:55;17.33;;;8.50;;
77123;SDS011;66079;47.646;19.130;2023-01-30T11:57:10;20.98;;;9.05;;
77123;SDS011;66079;47.646;19.130;2023-01-30T12:00:16;18.23;;;8.40;;
77123;SDS011;66079;47.646;19.130;2023-01-30T12:03:23;17.13;;;8.68;;
77123;SDS011;66079;47.646;19.130;2023-01-30T12:06:32;18.13;;;8.68;;
77123;SDS011;66079;47.646;19.130;2023-01-30T12:09:37;17.67;;;7.53;;
77123;SDS011;66079;47.646;19.130;2023-01-30T12:12:46;16.10;;;8.27;;
77123;SDS011;66079;47.646;19.130;2023-01-30T12:23:04;14.50;;;7.63;;
77123;SDS011;66079;47.646;19.130;2023-01-30T12:32:55;15.00;;;8.20;;
77123;SDS011;66079;47.646;19.130;2023-01-30T12:46:01;14.98;;;7.85;;
77123;SDS011;66079;47.646;19.130;2023-01-30T12:49:28;17.23;;;8.70;;
77123;SDS011;66079;47.646;19.130;2023-01-30T13:03:21;19.40;;;9.17;;
77123;SDS011;66079;47.646;19.130;2023-01-30T13:06:44;14.85;;;7.40;;
77123;SDS011;66079;47.646;19.130;2023-01-30T13:13:43;17.50;;;9.25;;
77123;SDS011;66079;47.646;19.130;2023-01-30T13:20:22;15.38;;;6.82;;
77123;SDS011;66079;47.646;19.130;2023-01-30T13:26:45;14.48;;;7.30;;
77123;SDS011;66079;47.646;19.130;2023-01-30T13:29:50;15.53;;;7.60;;
77123;SDS011;66079;47.646;19.130;2023-01-30T13:32:58;12.85;;;6.75;;
77123;SDS011;66079;47.646;19.130;2023-01-30T13:46:17;15.48;;;8.20;;
77123;SDS011;66079;47.646;19.130;2023-01-30T13:52:46;17.52;;;8.77;;
77123;SDS011;66079;47.646;19.130;2023-01-30T13:55:54;18.30;;;8.77;;
77123;SDS011;66079;47.646;19.130;2023-01-30T14:02:36;18.05;;;9.20;;
77123;SDS011;66079;47.646;19.130;2023-01-30T14:09:04;20.10;;;9.97;;
77123;SDS011;66079;47.646;19.130;2023-01-30T14:12:24;21.20;;;9.07;;
77123;SDS011;66079;47.646;19.130;2023-01-30T14:15:29;19.30;;;9.55;;
77123;SDS011;66079;47.646;19.130;2023-01-30T14:18:33;19.03;;;9.20;;
77123;SDS011;66079;47.646;19.130;2023-01-30T14:21:39;19.40;;;9.40;;
77123;SDS011;66079;47.646;19.130;2023-01-30T14:31:48;16.90;;;8.87;;
77123;SDS011;66079;47.646;19.130;2023-01-30T14:38:24;20.45;;;9.77;;
77123;SDS011;66079;47.646;19.130;2023-01-30T14:41:26;23.60;;;9.95;;
77123;SDS011;66079;47.646;19.130;2023-01-30T14:51:43;15.80;;;9.32;;
77123;SDS011;66079;47.646;19.130;2023-01-30T14:54:49;21.77;;;10.50;;
77123;SDS011;66079;47.646;19.130;2023-01-30T14:57:53;21.83;;;9.97;;
77123;SDS011;66079;47.646;19.130;2023-01-30T15:00:58;20.50;;;9.50;;
77123;SDS011;66079;47.646;19.130;2023-01-30T15:04:01;20.50;;;9.88;;
77123;SDS011;66079;47.646;19.130;2023-01-30T15:07:28;19.45;;;10.10;;
77123;SDS011;66079;47.646;19.130;2023-01-30T15:14:03;19.20;;;9.32;;
77123;SDS011;66079;47.646;19.130;2023-01-30T15:17:24;17.20;;;8.13;;
77123;SDS011;66079;47.646;19.130;2023-01-30T15:23:53;16.43;;;8.93;;
77123;SDS011;66079;47.646;19.130;2023-01-30T15:30:35;20.02;;;8.95;;
77123;SDS011;66079;47.646;19.130;2023-01-30T15:33:44;19.00;;;9.27;;
77123;SDS011;66079;47.646;19.130;2023-01-30T15:36:50;17.98;;;9.10;;
77123;SDS011;66079;47.646;19.130;2023-01-30T15:40:08;14.82;;;8.52;;
77123;SDS011;66079;47.646;19.130;2023-01-30T15:50:24;17.92;;;8.73;;
77123;SDS011;66079;47.646;19.130;2023-01-30T15:53:28;13.07;;;7.63;;
77123;SDS011;66079;47.646;19.130;2023-01-30T15:56:32;20.27;;;9.00;;
77123;SDS011;66079;47.646;19.130;2023-01-30T15:59:36;21.63;;;8.97;;
77123;SDS011;66079;47.646;19.130;2023-01-30T16:02:41;16.70;;;8.90;;
77123;SDS011;66079;47.646;19.130;2023-01-30T16:05:54;19.83;;;9.18;;
77123;SDS011;66079;47.646;19.130;2023-01-30T16:12:25;22.37;;;10.47;;
77123;SDS011;66079;47.646;19.130;2023-01-30T16:15:33;18.77;;;9.77;;
77123;SDS011;66079;47.646;19.130;2023-01-30T16:18:50;23.60;;;11.52;;
77123;SDS011;66079;47.646;19.130;2023-01-30T16:22:00;26.55;;;12.10;;
77123;SDS011;66079;47.646;19.130;2023-01-30T16:25:10;18.53;;;8.77;;
77123;SDS011;66079;47.646;19.130;2023-01-30T16:28:21;15.32;;;8.38;;
77123;SDS011;66079;47.646;19.130;2023-01-30T16:31:29;16.40;;;8.05;;
77123;SDS011;66079;47.646;19.130;2023-01-30T16:34:36;19.95;;;9.30;;
77123;SDS011;66079;47.646;19.130;2023-01-30T16:37:40;21.37;;;9.87;;
77123;SDS011;66079;47.646;19.130;2023-01-30T16:40:43;26.60;;;10.40;;
77123;SDS011;66079;47.646;19.130;2023-01-30T16:43:47;21.60;;;10.60;;
77123;SDS011;66079;47.646;19.130;2023-01-30T16:47:28;20.05;;;10.18;;
77123;SDS011;66079;47.646;19.130;2023-01-30T16:50:32;17.70;;;9.63;;
77123;SDS011;66079;47.646;19.130;2023-01-30T16:53:35;20.23;;;10.27;;
77123;SDS011;66079;47.646;19.130;2023-01-30T16:56:38;20.25;;;11.18;;
77123;SDS011;66079;47.646;19.130;2023-01-30T16:59:50;18.90;;;10.27;;
77123;SDS011;66079;47.646;19.130;2023-01-30T17:05:57;27.13;;;10.93;;
77123;SDS011;66079;47.646;19.130;2023-01-30T17:09:01;21.13;;;10.57;;
77123;SDS011;66079;47.646;19.130;2023-01-30T17:15:33;18.50;;;10.00;;
77123;SDS011;66079;47.646;19.130;2023-01-30T17:18:36;23.90;;;10.85;;
77123;SDS011;66079;47.646;19.130;2023-01-30T17:24:45;23.30;;;10.98;;
77123;SDS011;66079;47.646;19.130;2023-01-30T17:27:48;21.97;;;9.77;;
77123;SDS011;66079;47.646;19.130;2023-01-30T17:30:51;17.65;;;9.30;;
77123;SDS011;66079;47.646;19.130;2023-01-30T17:33:54;18.65;;;9.65;;
77123;SDS011;66079;47.646;19.130;2023-01-30T17:36:57;22.35;;;11.77;;
77123;SDS011;66079;47.646;19.130;2023-01-30T17:40:00;25.03;;;11.67;;
77123;SDS011;66079;47.646;19.130;2023-01-30T17:43:02;17.95;;;9.30;;
77123;SDS011;66079;47.646;19.130;2023-01-30T17:46:06;16.45;;;9.45;;
77123;SDS011;66079;47.646;19.130;2023-01-30T17:49:27;19.42;;;9.27;;
77123;SDS011;66079;47.646;19.130;2023-01-30T17:52:31;19.20;;;10.37;;
77123;SDS011;66079;47.646;19.130;2023-01-30T17:55:34;20.43;;;10.13;;
77123;SDS011;66079;47.646;19.130;2023-01-30T17:58:37;17.50;;;8.93;;
77123;SDS011;66079;47.646;19.130;2023-01-30T18:01:40;14.88;;;7.85;;
77123;SDS011;66079;47.646;19.130;2023-01-30T18:04:48;13.20;;;6.83;;
77123;SDS011;66079;47.646;19.130;2023-01-30T18:07:51;13.40;;;6.87;;
77123;SDS011;66079;47.646;19.130;2023-01-30T18:10:54;11.95;;;6.45;;
77123;SDS011;66079;47.646;19.130;2023-01-30T18:13:57;12.45;;;6.25;;
77123;SDS011;66079;47.646;19.130;2023-01-30T18:17:00;11.17;;;6.10;;
77123;SDS011;66079;47.646;19.130;2023-01-30T18:20:03;10.83;;;5.83;;
77123;SDS011;66079;47.646;19.130;2023-01-30T18:23:07;9.95;;;5.57;;
77123;SDS011;66079;47.646;19.130;2023-01-30T18:26:10;12.88;;;6.00;;
77123;SDS011;66079;47.646;19.130;2023-01-30T18:29:14;12.05;;;4.82;;
77123;SDS011;66079;47.646;19.130;2023-01-30T18:32:17;11.07;;;5.93;;
77123;SDS011;66079;47.646;19.130;2023-01-30T18:35:21;10.32;;;6.30;;
77123;SDS011;66079;47.646;19.130;2023-01-30T18:38:24;10.02;;;5.40;;
77123;SDS011;66079;47.646;19.130;2023-01-30T18:41:27;12.07;;;6.47;;
77123;SDS011;66079;47.646;19.130;2023-01-30T18:44:30;10.32;;;5.75;;
77123;SDS011;66079;47.646;19.130;2023-01-30T18:47:33;11.32;;;5.20;;
77123;SDS011;66079;47.646;19.130;2023-01-30T18:50:36;9.15;;;4.75;;
77123;SDS011;66079;47.646;19.130;2023-01-30T18:53:39;10.43;;;5.65;;
77123;SDS011;66079;47.646;19.130;2023-01-30T18:56:43;9.53;;;5.30;;
77123;SDS011;66079;47.646;19.130;2023-01-30T18:59:46;10.23;;;5.40;;
77123;SDS011;66079;47.646;19.130;2023-01-30T19:02:50;9.30;;;5.38;;
77123;SDS011;66079;47.646;19.130;2023-01-30T19:05:54;9.63;;;5.03;;
77123;SDS011;66079;47.646;19.130;2023-01-30T19:08:57;7.07;;;4.20;;
77123;SDS011;66079;47.646;19.130;2023-01-30T19:12:00;6.40;;;3.80;;
77123;SDS011;66079;47.646;19.130;2023-01-30T19:15:21;6.53;;;3.60;;
77123;SDS011;66079;47.646;19.130;2023-01-30T19:18:25;6.97;;;3.60;;
77123;SDS011;66079;47.646;19.130;2023-01-30T19:21:30;6.70;;;3.97;;
77123;SDS011;66079;47.646;19.130;2023-01-30T19:24:33;7.03;;;4.30;;
77123;SDS011;66079;47.646;19.130;2023-01-30T19:27:36;6.53;;;3.80;;
77123;SDS011;66079;47.646;19.130;2023-01-30T19:30:39;7.43;;;4.20;;
77123;SDS011;66079;47.646;19.130;2023-01-30T19:33:42;5.97;;;3.90;;
77123;SDS011;66079;47.646;19.130;2023-01-30T19:36:46;6.22;;;3.72;;
77123;SDS011;66079;47.646;19.130;2023-01-30T19:39:49;6.65;;;3.50;;
77123;SDS011;66079;47.646;19.130;2023-01-30T19:42:52;6.20;;;3.67;;
77123;SDS011;66079;47.646;19.130;2023-01-30T19:46:00;4.27;;;2.60;;
77123;SDS011;66079;47.646;19.130;2023-01-30T19:49:04;5.05;;;2.70;;
77123;SDS011;66079;47.646;19.130;2023-01-30T19:52:07;3.78;;;2.50;;
77123;SDS011;66079;47.646;19.130;2023-01-30T19:55:10;3.20;;;2.27;;
77123;SDS011;66079;47.646;19.130;2023-01-30T19:58:13;6.30;;;3.40;;
77123;SDS011;66079;47.646;19.130;2023-01-30T20:01:17;5.93;;;3.55;;
77123;SDS011;66079;47.646;19.130;2023-01-30T20:04:21;6.43;;;3.75;;
77123;SDS011;66079;47.646;19.130;2023-01-30T20:07:25;7.20;;;3.45;;
77123;SDS011;66079;47.646;19.130;2023-01-30T20:10:28;5.23;;;3.40;;
77123;SDS011;66079;47.646;19.130;2023-01-30T20:13:32;7.78;;;4.00;;
77123;SDS011;66079;47.646;19.130;2023-01-30T20:16:36;7.05;;;3.78;;
77123;SDS011;66079;47.646;19.130;2023-01-30T20:19:39;5.40;;;3.37;;
77123;SDS011;66079;47.646;19.130;2023-01-30T20:22:42;4.23;;;2.77;;
77123;SDS011;66079;47.646;19.130;2023-01-30T20:25:45;3.08;;;2.53;;
77123;SDS011;66079;47.646;19.130;2023-01-30T20:28:49;4.90;;;3.28;;
77123;SDS011;66079;47.646;19.130;2023-01-30T20:31:52;5.23;;;3.20;;
77123;SDS011;66079;47.646;19.130;2023-01-30T20:34:55;5.30;;;3.20;;
77123;SDS011;66079;47.646;19.130;2023-01-30T20:37:58;3.90;;;2.67;;
77123;SDS011;66079;47.646;19.130;2023-01-30T20:41:22;4.95;;;2.83;;
77123;SDS011;66079;47.646;19.130;2023-01-30T20:44:26;3.33;;;2.38;;
77123;SDS011;66079;47.646;19.130;2023-01-30T20:47:28;4.13;;;2.60;;
77123;SDS011;66079;47.646;19.130;2023-01-30T20:50:32;4.75;;;3.10;;
77123;SDS011;66079;47.646;19.130;2023-01-30T20:53:35;5.70;;;2.80;;
77123;SDS011;66079;47.646;19.130;2023-01-30T20:56:40;6.13;;;3.07;;
77123;SDS011;66079;47.646;19.130;2023-01-30T20:59:47;5.30;;;3.10;;
77123;SDS011;66079;47.646;19.130;2023-01-30T21:02:50;3.88;;;1.95;;
77123;SDS011;66079;47.646;19.130;2023-01-30T21:05:56;3.95;;;2.95;;